createdAt,value
2018-04-29T00:01:29.564Z,9.90
2018-04-29T00:05:32.043Z,10.70
2018-04-29T00:09:34.535Z,10.20
2018-04-29T00:13:37.016Z,9.00
2018-04-29T00:17:39.504Z,8.70
2018-04-29T00:21:41.962Z,9.13
2018-04-29T00:25:44.440Z,8.90
2018-04-29T00:29:46.895Z,8.87
2018-04-29T00:33:49.396Z,9.27
2018-04-29T00:37:51.858Z,8.60
2018-04-29T00:41:54.375Z,8.90
2018-04-29T00:45:56.836Z,9.57
2018-04-29T00:49:59.328Z,8.97
2018-04-29T00:54:01.828Z,9.67
2018-04-29T00:58:04.338Z,9.17
2018-04-29T01:02:06.819Z,9.00
2018-04-29T01:06:09.310Z,9.10
2018-04-29T01:10:11.798Z,9.43
2018-04-29T01:14:14.254Z,8.90
2018-04-29T01:18:16.738Z,8.67
2018-04-29T01:22:19.214Z,9.50
2018-04-29T01:26:21.712Z,9.40
2018-04-29T01:30:24.204Z,9.30
2018-04-29T01:34:26.692Z,9.23
2018-04-29T01:38:29.176Z,8.57
2018-04-29T01:42:31.672Z,8.23
2018-04-29T01:46:34.155Z,8.03
2018-04-29T01:50:36.607Z,8.10
2018-04-29T01:54:39.090Z,7.53
2018-04-29T01:58:41.576Z,7.87
2018-04-29T02:02:44.066Z,8.73
2018-04-29T02:06:46.550Z,9.00
2018-04-29T02:10:49.031Z,8.77
2018-04-29T02:14:51.520Z,9.00
2018-04-29T02:18:53.999Z,9.73
2018-04-29T02:22:56.467Z,9.40
2018-04-29T02:26:58.927Z,8.97
2018-04-29T02:31:01.454Z,8.80
2018-04-29T02:35:03.950Z,10.20
2018-04-29T02:39:06.455Z,11.80
2018-04-29T02:43:08.910Z,13.23
2018-04-29T02:47:11.399Z,12.53
2018-04-29T02:51:13.886Z,12.80
2018-04-29T02:55:16.347Z,12.37
2018-04-29T02:59:18.848Z,12.90
2018-04-29T03:03:21.313Z,12.20
2018-04-29T03:07:23.795Z,12.87
2018-04-29T03:11:26.259Z,14.13
2018-04-29T03:15:28.745Z,13.43
2018-04-29T03:19:31.217Z,14.03
2018-04-29T03:23:33.713Z,13.60
2018-04-29T03:27:36.216Z,13.13
2018-04-29T03:31:38.695Z,13.47
2018-04-29T03:35:41.191Z,14.10
2018-04-29T03:39:43.657Z,14.03
2018-04-29T03:43:46.149Z,14.23
2018-04-29T03:47:48.605Z,15.10
2018-04-29T03:51:51.090Z,15.73
2018-04-29T03:55:53.640Z,16.00
2018-04-29T04:00:07.956Z,15.73
2018-04-29T04:04:10.441Z,15.50
2018-04-29T04:08:12.925Z,17.17
2018-04-29T04:12:15.420Z,15.47
2018-04-29T04:16:17.901Z,16.40
2018-04-29T04:20:20.397Z,15.87
2018-04-29T04:24:22.888Z,16.73
2018-04-29T04:28:25.375Z,17.10
2018-04-29T04:32:27.874Z,17.83
2018-04-29T04:36:30.359Z,18.00
2018-04-29T04:40:32.848Z,18.03
2018-04-29T04:44:35.337Z,18.47
2018-04-29T04:48:37.797Z,17.97
2018-04-29T04:52:40.278Z,17.47
2018-04-29T04:56:42.776Z,16.43
2018-04-29T05:00:45.271Z,17.80
2018-04-29T05:04:47.757Z,16.73
2018-04-29T05:08:50.217Z,15.40
2018-04-29T05:12:52.707Z,16.73
2018-04-29T05:16:55.208Z,16.27
2018-04-29T05:20:57.724Z,15.30
2018-04-29T05:25:00.206Z,14.50
2018-04-29T05:29:02.693Z,15.07
2018-04-29T05:33:05.178Z,13.63
2018-04-29T05:37:07.669Z,13.73
2018-04-29T05:41:10.166Z,13.93
2018-04-29T05:45:12.635Z,14.63
2018-04-29T05:49:15.116Z,13.83
2018-04-29T05:53:17.595Z,13.53
2018-04-29T05:57:20.084Z,13.47
2018-04-29T06:01:22.576Z,13.63
2018-04-29T06:05:25.032Z,12.90
2018-04-29T06:09:27.517Z,13.27
2018-04-29T06:13:29.979Z,12.83
2018-04-29T06:17:32.501Z,11.57
2018-04-29T06:21:35.092Z,10.40
2018-04-29T06:25:38.434Z,10.30
2018-04-29T06:29:40.936Z,10.07
2018-04-29T06:33:43.403Z,10.43
2018-04-29T06:37:45.891Z,9.37
2018-04-29T06:41:48.495Z,9.90
2018-04-29T06:45:50.979Z,9.53
2018-04-29T06:49:53.442Z,9.50
2018-04-29T06:53:55.922Z,8.20
2018-04-29T06:57:58.428Z,8.93
2018-04-29T07:02:00.891Z,8.53
2018-04-29T07:06:03.378Z,8.80
2018-04-29T07:10:05.855Z,8.23
2018-04-29T07:14:08.335Z,8.33
2018-04-29T07:18:10.807Z,7.90
2018-04-29T07:22:13.289Z,8.20
2018-04-29T07:26:15.789Z,7.97
2018-04-29T07:30:18.293Z,7.80
2018-04-29T07:34:20.758Z,7.60
2018-04-29T07:38:23.253Z,7.53
2018-04-29T07:42:25.739Z,8.00
2018-04-29T07:46:28.573Z,7.67
2018-04-29T07:50:30.970Z,7.27
2018-04-29T07:54:33.450Z,7.53
2018-04-29T07:58:35.928Z,7.67
2018-04-29T08:02:38.378Z,8.30
2018-04-29T08:06:40.914Z,8.10
2018-04-29T08:10:43.353Z,8.33
2018-04-29T08:14:45.859Z,7.80
2018-04-29T08:18:48.319Z,7.90
2018-04-29T08:22:50.819Z,7.10
2018-04-29T08:26:53.286Z,6.50
2018-04-29T08:30:55.759Z,6.43
2018-04-29T08:34:58.270Z,6.87
2018-04-29T08:39:00.728Z,7.25
2018-04-29T08:43:03.221Z,8.60
2018-04-29T08:47:05.684Z,7.90
2018-04-29T08:51:08.172Z,7.35
2018-04-29T08:55:10.649Z,6.93
2018-04-29T08:59:13.142Z,7.22
2018-04-29T09:03:15.620Z,6.80
2018-04-29T09:07:18.096Z,7.03
2018-04-29T09:11:20.575Z,7.07
2018-04-29T09:15:23.086Z,7.10
2018-04-29T09:19:25.546Z,7.53
2018-04-29T09:23:28.027Z,7.85
2018-04-29T09:27:30.493Z,7.43
2018-04-29T09:31:32.980Z,9.65
2018-04-29T09:35:35.438Z,6.90
2018-04-29T09:39:37.919Z,7.53
2018-04-29T09:43:40.416Z,7.82
2018-04-29T09:47:42.864Z,8.77
2018-04-29T09:51:45.356Z,8.50
2018-04-29T09:55:47.830Z,7.18
2018-04-29T09:59:50.322Z,6.65
2018-04-29T10:03:52.804Z,8.82
2018-04-29T10:07:55.300Z,14.60
2018-04-29T10:11:57.776Z,40.42
2018-04-29T10:16:00.263Z,13.73
2018-04-29T10:20:02.761Z,9.15
2018-04-29T10:24:05.217Z,6.65
2018-04-29T10:28:07.704Z,6.55
2018-04-29T10:32:10.200Z,25.23
2018-04-29T10:36:12.698Z,15.68
2018-04-29T10:40:15.206Z,12.45
2018-04-29T10:44:17.651Z,8.68
2018-04-29T10:48:20.144Z,10.43
2018-04-29T10:52:22.641Z,6.50
2018-04-29T10:56:25.106Z,6.62
2018-04-29T11:00:27.591Z,5.87
2018-04-29T11:04:30.052Z,5.68
2018-04-29T11:08:32.543Z,10.77
2018-04-29T11:12:35.037Z,6.07
2018-04-29T11:16:37.559Z,6.90
2018-04-29T11:20:39.986Z,5.20
2018-04-29T11:24:42.471Z,5.45
2018-04-29T11:28:44.946Z,6.32
2018-04-29T11:32:47.429Z,5.93
2018-04-29T11:36:49.997Z,6.45
2018-04-29T11:40:52.452Z,5.80
2018-04-29T11:44:54.927Z,5.55
2018-04-29T11:48:57.388Z,6.15
2018-04-29T11:52:59.868Z,6.32
2018-04-29T11:57:02.363Z,5.93
2018-04-29T12:01:04.821Z,5.40
2018-04-29T12:05:07.308Z,6.12
2018-04-29T12:09:09.765Z,6.28
2018-04-29T12:13:12.254Z,5.45
2018-04-29T12:17:14.736Z,5.93
2018-04-29T12:21:17.195Z,5.82
2018-04-29T12:25:19.688Z,5.30
2018-04-29T12:29:22.193Z,6.20
2018-04-29T12:33:24.657Z,5.35
2018-04-29T12:37:27.141Z,5.25
2018-04-29T12:41:29.643Z,5.43
2018-04-29T12:45:32.182Z,6.12
2018-04-29T12:49:34.656Z,5.70
2018-04-29T12:53:37.143Z,5.80
2018-04-29T12:57:39.622Z,5.55
2018-04-29T13:01:42.108Z,5.50
2018-04-29T13:05:44.640Z,5.57
2018-04-29T13:09:47.080Z,5.78
2018-04-29T13:13:49.623Z,5.93
2018-04-29T13:17:52.133Z,5.47
2018-04-29T13:21:54.622Z,5.82
2018-04-29T13:25:57.088Z,5.05
2018-04-29T13:29:59.585Z,6.00
2018-04-29T13:34:02.080Z,6.43
2018-04-29T13:38:04.545Z,6.07
2018-04-29T13:42:07.106Z,5.80
2018-04-29T13:46:09.508Z,5.10
2018-04-29T13:50:12.209Z,6.05
2018-04-29T13:54:14.703Z,5.97
2018-04-29T13:58:17.160Z,4.97
2018-04-29T14:02:19.646Z,5.50
2018-04-29T14:06:22.127Z,5.15
2018-04-29T14:10:24.663Z,5.45
2018-04-29T14:14:27.074Z,5.03
2018-04-29T14:18:29.557Z,5.43
2018-04-29T14:22:32.040Z,5.12
2018-04-29T14:26:34.519Z,5.40
2018-04-29T14:30:37.012Z,5.75
2018-04-29T14:34:39.519Z,5.37
2018-04-29T14:38:41.982Z,5.12
2018-04-29T14:42:44.463Z,6.03
2018-04-29T14:46:46.950Z,6.03
2018-04-29T14:50:49.450Z,5.60
2018-04-29T14:54:51.911Z,5.90
2018-04-29T14:58:54.390Z,5.32
2018-04-29T15:02:56.881Z,6.03
2018-04-29T15:06:59.371Z,6.25
2018-04-29T15:11:01.830Z,5.82
2018-04-29T15:15:04.321Z,5.12
2018-04-29T15:19:06.787Z,5.32
2018-04-29T15:23:09.269Z,5.87
2018-04-29T15:27:11.752Z,5.65
2018-04-29T15:31:14.242Z,5.55
2018-04-29T15:35:16.723Z,5.28
2018-04-29T15:39:19.190Z,5.43
2018-04-29T15:43:21.730Z,5.25
2018-04-29T15:47:24.205Z,4.72
2018-04-29T15:51:26.667Z,5.22
2018-04-29T15:55:29.143Z,5.10
2018-04-29T15:59:31.626Z,5.55
2018-04-29T16:03:34.136Z,5.18
2018-04-29T16:07:36.582Z,5.05
2018-04-29T16:11:39.090Z,6.00
2018-04-29T16:15:41.572Z,5.45
2018-04-29T16:19:44.040Z,5.40
2018-04-29T16:23:46.584Z,5.12
2018-04-29T16:27:49.049Z,5.45
2018-04-29T16:31:51.547Z,5.07
2018-04-29T16:35:54.048Z,6.20
2018-04-29T16:39:56.532Z,5.37
2018-04-29T16:43:59.020Z,5.28
2018-04-29T16:48:01.512Z,5.47
2018-04-29T16:52:04.001Z,5.40
2018-04-29T16:56:06.481Z,4.90
2018-04-29T17:00:08.955Z,5.25
2018-04-29T17:04:11.445Z,5.37
2018-04-29T17:08:13.909Z,5.95
2018-04-29T17:12:16.391Z,5.40
2018-04-29T17:16:18.878Z,5.85
2018-04-29T17:20:21.380Z,5.32
2018-04-29T17:24:23.842Z,5.35
2018-04-29T17:28:26.323Z,5.37
2018-04-29T17:32:28.790Z,5.35
2018-04-29T17:36:31.291Z,5.32
2018-04-29T17:40:33.745Z,4.97
2018-04-29T17:44:36.232Z,4.97
2018-04-29T17:48:38.706Z,5.70
2018-04-29T17:52:41.203Z,5.50
2018-04-29T17:56:43.689Z,5.32
2018-04-29T18:00:46.179Z,5.50
2018-04-29T18:04:48.652Z,4.82
2018-04-29T18:08:51.130Z,5.07
2018-04-29T18:12:53.624Z,5.30
2018-04-29T18:16:56.076Z,5.00
2018-04-29T18:20:58.552Z,4.82
2018-04-29T18:25:01.037Z,4.87
2018-04-29T18:29:03.493Z,4.95
2018-04-29T18:33:05.979Z,5.45
2018-04-29T18:37:08.442Z,5.47
2018-04-29T18:41:10.926Z,5.45
2018-04-29T18:45:13.416Z,5.53
2018-04-29T18:49:15.973Z,5.47
2018-04-29T18:53:18.461Z,5.37
2018-04-29T18:57:20.923Z,5.95
2018-04-29T19:01:23.411Z,5.63
2018-04-29T19:05:37.532Z,7.82
2018-04-29T19:09:40.010Z,5.80
2018-04-29T19:13:42.497Z,6.20
2018-04-29T19:17:44.981Z,5.63
2018-04-29T19:21:47.467Z,5.60
2018-04-29T19:25:49.947Z,6.27
2018-04-29T19:29:52.434Z,6.27
2018-04-29T19:33:54.921Z,6.23
2018-04-29T19:37:57.407Z,6.23
2018-04-29T19:41:59.869Z,5.87
2018-04-29T19:46:02.360Z,5.70
2018-04-29T19:50:04.821Z,5.77
2018-04-29T19:54:07.302Z,6.13
2018-04-29T19:58:09.775Z,6.03
2018-04-29T20:02:12.262Z,5.73
2018-04-29T20:06:14.719Z,6.03
2018-04-29T20:10:17.205Z,6.10
2018-04-29T20:14:19.665Z,6.13
2018-04-29T20:18:22.150Z,5.80
2018-04-29T20:22:24.652Z,5.97
2018-04-29T20:26:27.135Z,6.40
2018-04-29T20:30:29.628Z,6.00
2018-04-29T20:34:32.094Z,6.13
2018-04-29T20:38:34.569Z,5.87
2018-04-29T20:42:37.047Z,5.90
2018-04-29T20:46:39.511Z,5.83
2018-04-29T20:50:41.988Z,5.80
2018-04-29T20:54:44.469Z,5.57
2018-04-29T20:58:46.922Z,5.80
2018-04-29T21:02:49.404Z,6.40
2018-04-29T21:06:51.859Z,5.87
2018-04-29T21:10:54.348Z,5.50
2018-04-29T21:14:56.827Z,6.07
2018-04-29T21:18:59.333Z,6.00
2018-04-29T21:23:01.790Z,5.70
2018-04-29T21:27:04.271Z,5.57
2018-04-29T21:31:06.748Z,5.97
2018-04-29T21:35:09.215Z,6.00
2018-04-29T21:39:11.694Z,5.60
2018-04-29T21:43:14.163Z,5.90
2018-04-29T21:47:16.641Z,5.53
2018-04-29T21:51:19.087Z,5.70
2018-04-29T21:55:21.576Z,6.10
2018-04-29T21:59:24.036Z,5.70
2018-04-29T22:03:26.514Z,5.63
2018-04-29T22:07:29.003Z,6.43
2018-04-29T22:11:31.494Z,5.87
2018-04-29T22:15:33.973Z,6.07
2018-04-29T22:19:36.457Z,5.90
2018-04-29T22:23:38.949Z,5.83
2018-04-29T22:27:41.408Z,5.93
2018-04-29T22:31:43.879Z,5.63
2018-04-29T22:35:46.367Z,5.93
2018-04-29T22:39:48.818Z,5.97
2018-04-29T22:43:51.312Z,6.00
2018-04-29T22:47:53.795Z,6.20
2018-04-29T22:51:56.282Z,5.90
2018-04-29T22:55:58.750Z,5.60
2018-04-29T23:00:01.224Z,5.97
2018-04-29T23:04:03.762Z,5.93
2018-04-29T23:08:06.209Z,6.00
2018-04-29T23:12:08.658Z,5.87
2018-04-29T23:16:11.139Z,5.50
2018-04-29T23:20:13.623Z,6.10
2018-04-29T23:24:16.105Z,6.03
2018-04-29T23:28:18.592Z,5.93
2018-04-29T23:32:21.071Z,5.87
2018-04-29T23:36:23.555Z,6.00
2018-04-29T23:40:26.011Z,6.33
2018-04-29T23:44:28.500Z,6.63
2018-04-29T23:48:30.982Z,6.40
2018-04-29T23:52:33.479Z,6.10
2018-04-29T23:56:35.946Z,7.03
